createdAt,value
2022-08-19T00:02:07.488Z,19.20
2022-08-19T00:04:38.009Z,19.63
2022-08-19T00:07:08.172Z,19.48
2022-08-19T00:09:36.733Z,19.09
2022-08-19T00:12:05.877Z,19.02
2022-08-19T00:14:34.658Z,19.48
2022-08-19T00:17:06.150Z,19.33
2022-08-19T00:19:35.749Z,19.36
2022-08-19T00:22:04.876Z,19.07
2022-08-19T00:24:34.146Z,18.97
2022-08-19T00:27:25.810Z,19.14
2022-08-19T00:29:53.214Z,19.49
2022-08-19T00:32:23.885Z,19.10
2022-08-19T00:34:54.555Z,18.85
2022-08-19T00:37:24.192Z,18.72
2022-08-19T00:39:53.269Z,19.36
2022-08-19T00:42:23.069Z,19.15
2022-08-19T00:44:52.858Z,18.90
2022-08-19T00:47:22.763Z,17.91
2022-08-19T00:49:54.277Z,18.91
2022-08-19T00:52:26.349Z,18.27
2022-08-19T00:54:55.515Z,18.63
2022-08-19T00:57:32.972Z,18.72
2022-08-19T01:00:03.544Z,18.75
2022-08-19T01:02:34.938Z,18.80
2022-08-19T01:05:06.704Z,17.88
2022-08-19T01:07:38.250Z,18.36
2022-08-19T01:10:10.030Z,18.40
2022-08-19T01:12:39.915Z,17.89
2022-08-19T01:15:14.851Z,18.63
2022-08-19T01:17:45.722Z,17.72
2022-08-19T01:20:16.425Z,18.56
2022-08-19T01:22:49.522Z,18.51
2022-08-19T01:25:21.561Z,18.76
2022-08-19T01:27:54.316Z,18.19
2022-08-19T01:30:31.338Z,18.37
2022-08-19T01:33:01.634Z,17.86
2022-08-19T01:35:32.608Z,18.11
2022-08-19T01:38:07.060Z,18.70
2022-08-19T01:40:39.539Z,18.14
2022-08-19T01:43:08.892Z,18.68
2022-08-19T01:45:41.260Z,18.82
2022-08-19T01:48:10.527Z,18.70
2022-08-19T01:50:39.101Z,18.57
2022-08-19T01:53:13.401Z,18.08
2022-08-19T01:55:44.770Z,18.37
2022-08-19T01:58:17.200Z,17.62
2022-08-19T02:00:47.389Z,18.10
2022-08-19T02:03:17.086Z,18.57
2022-08-19T02:05:46.783Z,17.99
2022-08-19T02:08:17.221Z,18.50
2022-08-19T02:10:46.491Z,18.02
2022-08-19T02:13:15.635Z,18.75
2022-08-19T02:15:50.952Z,18.32
2022-08-19T02:18:19.521Z,18.48
2022-08-19T02:20:48.659Z,18.01
2022-08-19T02:23:19.615Z,18.09
2022-08-19T02:25:53.572Z,18.07
2022-08-19T02:28:22.292Z,18.76
2022-08-19T02:30:50.826Z,18.11
2022-08-19T02:33:19.342Z,18.31
2022-08-19T02:35:49.318Z,18.69
2022-08-19T02:38:27.275Z,18.55
2022-08-19T02:40:59.415Z,18.86
2022-08-19T02:43:29.132Z,18.51
2022-08-19T02:46:02.670Z,18.93
2022-08-19T02:48:31.197Z,19.09
2022-08-19T02:51:00.546Z,18.42
2022-08-19T02:53:31.058Z,18.15
2022-08-19T02:55:59.784Z,18.52
2022-08-19T02:58:28.988Z,18.67
2022-08-19T03:00:58.714Z,19.12
2022-08-19T03:03:27.598Z,18.67
2022-08-19T03:06:06.711Z,18.62
2022-08-19T03:08:37.362Z,19.03
2022-08-19T03:11:34.758Z,19.02
2022-08-19T03:14:05.420Z,18.54
2022-08-19T03:16:43.274Z,18.60
2022-08-19T03:19:12.090Z,18.82
2022-08-19T03:21:40.519Z,18.28
2022-08-19T03:24:11.291Z,18.85
2022-08-19T03:26:42.432Z,18.15
2022-08-19T03:29:11.398Z,18.40
2022-08-19T03:31:52.512Z,18.32
2022-08-19T03:34:27.241Z,18.12
2022-08-19T03:36:57.134Z,18.16
2022-08-19T03:39:28.482Z,18.32
2022-08-19T03:42:30.067Z,18.67
2022-08-19T03:44:47.838Z,18.61
2022-08-19T03:47:17.596Z,18.14
2022-08-19T03:49:46.235Z,18.35
2022-08-19T03:52:15.289Z,18.50
2022-08-19T03:54:46.039Z,18.68
2022-08-19T03:57:14.580Z,18.01
2022-08-19T03:59:42.987Z,18.76
2022-08-19T04:02:13.582Z,18.87
2022-08-19T04:04:44.673Z,18.69
2022-08-19T04:07:17.326Z,18.30
2022-08-19T04:09:47.158Z,18.99
2022-08-19T04:12:16.010Z,19.02
2022-08-19T04:14:44.498Z,18.53
2022-08-19T04:17:15.117Z,19.03
2022-08-19T04:19:43.996Z,17.97
2022-08-19T04:22:13.696Z,18.67
2022-08-19T04:24:42.122Z,18.95
2022-08-19T04:27:12.234Z,18.91
2022-08-19T04:29:41.513Z,19.02
2022-08-19T04:32:10.194Z,19.28
2022-08-19T04:35:01.192Z,19.59
2022-08-19T04:37:35.430Z,19.08
2022-08-19T04:40:25.386Z,19.52
2022-08-19T04:42:55.605Z,19.56
2022-08-19T04:45:24.877Z,19.21
2022-08-19T04:48:26.241Z,19.83
2022-08-19T04:50:47.260Z,18.98
2022-08-19T04:53:16.471Z,19.69
2022-08-19T04:55:45.010Z,19.77
2022-08-19T04:58:18.620Z,19.80
2022-08-19T05:00:47.185Z,19.20
2022-08-19T05:03:18.163Z,19.84
2022-08-19T05:05:49.389Z,19.65
2022-08-19T05:08:30.962Z,19.82
2022-08-19T05:11:00.258Z,20.01
2022-08-19T05:13:30.610Z,19.96
2022-08-19T05:16:01.056Z,20.36
2022-08-19T05:18:47.266Z,20.40
2022-08-19T05:21:35.649Z,19.93
2022-08-19T05:24:08.894Z,20.32
2022-08-19T05:26:37.730Z,20.35
2022-08-19T05:29:09.610Z,20.74
2022-08-19T05:31:41.653Z,21.23
2022-08-19T05:34:20.298Z,20.87
2022-08-19T05:36:49.443Z,21.30
2022-08-19T05:39:21.450Z,21.90
2022-08-19T05:41:55.657Z,21.71
2022-08-19T05:44:27.031Z,21.99
2022-08-19T05:46:55.843Z,21.88
2022-08-19T05:49:26.445Z,22.07
2022-08-19T05:51:56.013Z,21.60
2022-08-19T05:54:25.736Z,21.99
2022-08-19T05:56:55.059Z,21.72
2022-08-19T05:59:26.351Z,22.63
2022-08-19T06:01:56.748Z,22.84
2022-08-19T06:04:26.426Z,22.40
2022-08-19T06:06:56.156Z,22.08
2022-08-19T06:09:25.669Z,21.97
2022-08-19T06:12:00.825Z,22.46
2022-08-19T06:14:33.399Z,22.84
2022-08-19T06:17:07.288Z,22.58
2022-08-19T06:19:41.020Z,22.44
2022-08-19T06:22:10.922Z,22.77
2022-08-19T06:24:39.294Z,22.38
2022-08-19T06:27:07.692Z,22.26
2022-08-19T06:29:38.070Z,22.92
2022-08-19T06:32:08.597Z,23.37
2022-08-19T06:34:40.629Z,23.30
2022-08-19T06:37:09.152Z,22.85
2022-08-19T06:39:43.489Z,22.95
2022-08-19T06:42:17.447Z,22.69
2022-08-19T06:44:53.578Z,22.81
2022-08-19T06:47:28.546Z,23.04
2022-08-19T06:50:01.166Z,23.19
2022-08-19T06:52:36.583Z,22.80
2022-08-19T06:55:08.238Z,23.48
2022-08-19T06:57:38.683Z,23.74
2022-08-19T07:00:14.346Z,23.58
2022-08-19T07:02:48.154Z,23.84
2022-08-19T07:05:22.264Z,23.72
2022-08-19T07:07:51.181Z,24.01
2022-08-19T07:10:20.397Z,23.73
2022-08-19T07:12:50.189Z,24.45
2022-08-19T07:15:22.453Z,24.36
2022-08-19T07:17:52.529Z,23.59
2022-08-19T07:20:21.919Z,24.59
2022-08-19T07:22:57.248Z,25.00
2022-08-19T07:25:32.223Z,24.93
2022-08-19T07:28:02.775Z,24.16
2022-08-19T07:30:39.751Z,24.72
2022-08-19T07:33:12.755Z,24.94
2022-08-19T07:35:43.517Z,25.09
2022-08-19T07:38:13.530Z,25.00
2022-08-19T07:40:48.089Z,25.51
2022-08-19T07:43:18.257Z,24.99
2022-08-19T07:45:48.668Z,25.29
2022-08-19T07:48:17.157Z,25.37
2022-08-19T07:50:49.712Z,25.64
2022-08-19T07:53:21.322Z,25.18
2022-08-19T07:55:50.941Z,25.84
2022-08-19T07:58:24.498Z,26.24
2022-08-19T08:00:54.781Z,25.65
2022-08-19T08:03:45.688Z,26.51
2022-08-19T08:06:33.146Z,26.60
2022-08-19T08:09:16.947Z,26.62
2022-08-19T08:11:50.601Z,26.80
2022-08-19T08:14:29.258Z,26.94
2022-08-19T08:17:10.997Z,27.17
2022-08-19T08:19:42.175Z,27.18
2022-08-19T08:22:33.877Z,27.46
2022-08-19T08:25:07.807Z,27.60
2022-08-19T08:27:40.527Z,27.52
2022-08-19T08:30:10.865Z,27.98
2022-08-19T08:32:41.716Z,28.00
2022-08-19T08:35:14.263Z,28.12
2022-08-19T08:37:43.025Z,28.26
2022-08-19T08:40:31.905Z,28.40
2022-08-19T08:43:11.349Z,28.53
2022-08-19T08:45:53.460Z,28.77
2022-08-19T08:48:29.871Z,28.72
2022-08-19T08:51:00.054Z,28.79
2022-08-19T08:53:33.397Z,28.79
2022-08-19T08:56:05.830Z,28.90
2022-08-19T08:58:44.252Z,28.90
2022-08-19T09:01:14.263Z,28.92
2022-08-19T09:03:46.442Z,29.15
2022-08-19T09:06:26.012Z,29.01
2022-08-19T09:09:04.393Z,29.07
2022-08-19T09:11:56.143Z,28.97
2022-08-19T09:14:51.282Z,28.97
2022-08-19T09:17:29.218Z,28.97
2022-08-19T09:20:03.694Z,28.97
2022-08-19T09:22:33.445Z,28.97
2022-08-19T09:25:02.256Z,28.97
2022-08-19T09:27:53.850Z,28.97
2022-08-19T09:30:23.233Z,28.97
2022-08-19T09:32:53.719Z,28.97
2022-08-19T09:35:25.073Z,28.97
2022-08-19T09:37:57.673Z,28.97
2022-08-19T09:40:30.337Z,29.28
2022-08-19T09:43:12.969Z,29.28
2022-08-19T09:45:42.687Z,29.28
2022-08-19T09:48:11.921Z,29.28
2022-08-19T09:50:52.027Z,29.28
2022-08-19T09:53:25.545Z,29.28
2022-08-19T09:55:54.714Z,29.28
2022-08-19T09:58:26.691Z,29.28
2022-08-19T10:00:55.947Z,29.28
2022-08-19T10:03:25.625Z,29.28
2022-08-19T10:06:02.667Z,29.28
2022-08-19T10:08:33.933Z,29.28
2022-08-19T10:11:27.223Z,29.28
2022-08-19T10:13:52.003Z,29.28
2022-08-19T10:16:26.036Z,29.28
2022-08-19T10:19:05.940Z,30.70
2022-08-19T10:21:38.839Z,30.70
2022-08-19T10:24:09.450Z,30.70
2022-08-19T10:26:46.095Z,30.70
2022-08-19T10:29:31.945Z,30.70
2022-08-19T10:32:02.234Z,30.70
2022-08-19T10:34:33.302Z,30.70
2022-08-19T10:37:05.880Z,30.70
2022-08-19T10:39:43.162Z,30.70
2022-08-19T10:42:14.172Z,30.70
2022-08-19T10:44:43.167Z,30.70
2022-08-19T10:50:41.249Z,30.70
2022-08-19T10:53:11.422Z,30.70
2022-08-19T10:56:03.673Z,30.70
2022-08-19T10:58:34.507Z,30.70
2022-08-19T11:01:02.904Z,30.70
2022-08-19T11:03:31.724Z,30.70
2022-08-19T11:06:03.160Z,30.70
2022-08-19T11:08:34.484Z,30.70
2022-08-19T11:11:04.905Z,30.70
2022-08-19T11:13:36.251Z,30.70
2022-08-19T11:16:08.186Z,30.70
2022-08-19T11:18:39.042Z,30.70
2022-08-19T11:21:12.366Z,30.79
2022-08-19T11:23:42.633Z,31.01
2022-08-19T11:26:12.096Z,31.01
2022-08-19T11:28:48.276Z,31.01
2022-08-19T11:31:20.384Z,31.01
2022-08-19T11:33:51.782Z,31.01
2022-08-19T11:36:21.593Z,31.01
2022-08-19T11:38:51.886Z,31.01
2022-08-19T11:41:24.097Z,31.01
2022-08-19T11:43:54.775Z,31.01
2022-08-19T11:46:24.986Z,31.01
2022-08-19T11:48:53.328Z,31.01
2022-08-19T11:51:23.711Z,31.01
2022-08-19T11:53:54.035Z,31.01
2022-08-19T11:56:23.762Z,31.01
2022-08-19T11:58:53.152Z,31.01
2022-08-19T12:01:25.100Z,31.01
2022-08-19T12:03:54.878Z,31.01
2022-08-19T12:06:29.483Z,31.01
2022-08-19T12:09:00.798Z,31.01
2022-08-19T12:11:34.581Z,31.01
2022-08-19T12:14:03.408Z,31.01
2022-08-19T12:16:32.961Z,31.01
2022-08-19T12:19:05.216Z,32.24
2022-08-19T12:21:36.460Z,31.86
2022-08-19T12:24:08.539Z,32.28
2022-08-19T12:26:53.406Z,31.73
2022-08-19T12:29:24.111Z,32.03
2022-08-19T12:31:53.483Z,31.62
2022-08-19T12:34:22.233Z,31.30
2022-08-19T12:36:51.451Z,31.64
2022-08-19T12:39:22.012Z,31.30
2022-08-19T12:41:54.712Z,31.85
2022-08-19T12:44:29.508Z,30.96
2022-08-19T12:47:01.305Z,31.11
2022-08-19T12:49:53.760Z,31.76
2022-08-19T12:52:23.858Z,31.45
2022-08-19T12:54:57.104Z,31.37
2022-08-19T12:57:34.484Z,30.73
2022-08-19T13:00:10.813Z,31.55
2022-08-19T13:02:39.848Z,31.41
2022-08-19T13:05:13.708Z,31.58
2022-08-19T13:07:44.932Z,31.24
2022-08-19T13:10:19.060Z,31.96
2022-08-19T13:12:49.352Z,31.71
2022-08-19T13:15:23.870Z,32.22
2022-08-19T13:17:56.907Z,32.86
2022-08-19T13:20:26.764Z,32.60
2022-08-19T13:22:55.971Z,32.42
2022-08-19T13:25:26.803Z,32.82
2022-08-19T13:27:58.104Z,32.83
2022-08-19T13:30:43.974Z,32.64
2022-08-19T13:33:16.760Z,33.36
2022-08-19T13:35:48.701Z,33.82
2022-08-19T13:38:20.346Z,33.05
2022-08-19T13:40:52.748Z,32.40
2022-08-19T13:43:23.805Z,32.15
2022-08-19T13:45:57.384Z,32.97
2022-08-19T13:48:28.414Z,32.20
2022-08-19T13:50:57.377Z,32.27
2022-08-19T13:53:25.805Z,32.22
2022-08-19T13:55:55.804Z,32.99
2022-08-19T13:58:26.411Z,32.78
2022-08-19T14:00:57.368Z,32.05
2022-08-19T14:03:25.824Z,33.21
2022-08-19T14:06:38.797Z,33.30
2022-08-19T14:09:12.570Z,32.74
2022-08-19T14:11:47.698Z,33.00
2022-08-19T14:14:16.607Z,32.61
2022-08-19T14:16:49.516Z,33.25
2022-08-19T14:19:18.659Z,33.07
2022-08-19T14:21:47.075Z,33.11
2022-08-19T14:24:16.718Z,32.39
2022-08-19T14:26:46.668Z,32.38
2022-08-19T14:29:14.935Z,32.76
2022-08-19T14:31:45.103Z,32.66
2022-08-19T14:34:13.832Z,32.80
2022-08-19T14:36:42.934Z,32.37
2022-08-19T14:39:11.642Z,32.02
2022-08-19T14:41:42.619Z,31.84
2022-08-19T14:44:13.540Z,32.48
2022-08-19T14:46:49.497Z,32.58
2022-08-19T14:49:19.030Z,33.01
2022-08-19T14:51:48.782Z,32.35
2022-08-19T14:54:17.142Z,32.48
2022-08-19T14:56:48.087Z,32.58
2022-08-19T14:59:18.529Z,32.59
2022-08-19T15:01:46.704Z,32.53
2022-08-19T15:04:15.057Z,32.48
2022-08-19T15:06:43.709Z,32.34
2022-08-19T15:09:12.469Z,32.26
2022-08-19T15:11:40.843Z,32.09
2022-08-19T15:14:11.045Z,32.03
2022-08-19T15:16:42.874Z,32.08
2022-08-19T15:19:11.449Z,31.97
2022-08-19T15:21:39.668Z,32.01
2022-08-19T15:24:08.360Z,31.93
2022-08-19T15:26:36.738Z,31.87
2022-08-19T15:29:05.814Z,31.86
2022-08-19T15:31:38.342Z,31.98
2022-08-19T15:34:09.445Z,31.86
2022-08-19T15:36:37.783Z,32.04
2022-08-19T15:39:06.578Z,31.99
2022-08-19T15:41:34.931Z,32.47
2022-08-19T15:44:09.120Z,32.90
2022-08-19T15:46:39.422Z,32.75
2022-08-19T15:49:10.454Z,32.64
2022-08-19T15:51:40.311Z,32.49
2022-08-19T15:54:10.823Z,32.49
2022-08-19T15:56:57.675Z,32.23
2022-08-19T15:59:47.052Z,32.19
2022-08-19T16:02:33.888Z,32.11
2022-08-19T16:05:21.008Z,31.81
2022-08-19T16:07:49.438Z,31.67
2022-08-19T16:10:26.084Z,31.50
2022-08-19T16:12:57.205Z,31.11
2022-08-19T16:15:27.469Z,31.09
2022-08-19T16:17:56.978Z,30.95
2022-08-19T16:20:28.115Z,30.76
2022-08-19T16:22:58.453Z,30.78
2022-08-19T16:25:29.223Z,30.58
2022-08-19T16:28:07.572Z,30.63
2022-08-19T16:30:39.027Z,30.62
2022-08-19T16:33:08.413Z,30.66
2022-08-19T16:35:38.024Z,30.60
2022-08-19T16:38:07.085Z,30.60
2022-08-19T16:40:36.343Z,30.45
2022-08-19T16:43:04.742Z,30.53
2022-08-19T16:45:33.233Z,30.44
2022-08-19T16:48:01.756Z,30.45
2022-08-19T16:50:48.124Z,30.21
2022-08-19T16:53:20.853Z,30.22
2022-08-19T16:55:50.868Z,30.22
2022-08-19T16:58:19.764Z,30.18
2022-08-19T17:00:50.144Z,30.17
2022-08-19T17:03:19.770Z,30.19
2022-08-19T17:06:04.699Z,30.14
2022-08-19T17:08:48.729Z,30.13
2022-08-19T17:11:19.146Z,29.95
2022-08-19T17:13:48.313Z,29.86
2022-08-19T17:16:17.560Z,29.73
2022-08-19T17:18:45.926Z,29.64
2022-08-19T17:21:14.441Z,29.60
2022-08-19T17:23:44.104Z,29.50
2022-08-19T17:26:18.071Z,29.38
2022-08-19T17:28:49.594Z,29.26
2022-08-19T17:31:23.726Z,29.14
2022-08-19T17:33:52.164Z,29.04
2022-08-19T17:36:23.409Z,28.93
2022-08-19T17:38:52.129Z,28.89
2022-08-19T17:41:21.663Z,28.68
2022-08-19T17:43:50.401Z,28.82
2022-08-19T17:46:19.496Z,28.67
2022-08-19T17:48:52.738Z,28.60
2022-08-19T17:51:23.922Z,28.56
2022-08-19T17:53:54.301Z,28.46
2022-08-19T17:56:24.978Z,28.22
2022-08-19T17:58:59.978Z,28.29
2022-08-19T18:01:39.591Z,28.22
2022-08-19T18:04:19.862Z,28.09
2022-08-19T18:06:53.638Z,28.02
2022-08-19T18:09:28.794Z,27.93
2022-08-19T18:12:09.986Z,27.74
2022-08-19T18:14:39.901Z,26.97
2022-08-19T18:17:10.890Z,27.74
2022-08-19T18:19:42.970Z,27.37
2022-08-19T18:22:22.569Z,27.05
2022-08-19T18:24:51.136Z,26.89
2022-08-19T18:27:21.326Z,27.18
2022-08-19T18:29:50.047Z,26.82
2022-08-19T18:32:24.033Z,27.07
2022-08-19T18:34:53.406Z,26.27
2022-08-19T18:37:23.050Z,26.57
2022-08-19T18:40:13.259Z,27.24
2022-08-19T18:43:04.707Z,27.21
2022-08-19T18:45:51.052Z,27.14
2022-08-19T18:48:37.117Z,27.16
2022-08-19T18:51:05.785Z,27.16
2022-08-19T18:53:37.965Z,26.41
2022-08-19T18:56:06.823Z,26.55
2022-08-19T18:58:38.738Z,26.97
2022-08-19T19:01:11.763Z,27.32
2022-08-19T19:03:44.331Z,26.62
2022-08-19T19:06:13.005Z,27.27
2022-08-19T19:08:41.557Z,27.36
2022-08-19T19:11:10.308Z,27.17
2022-08-19T19:13:41.213Z,26.96
2022-08-19T19:16:11.679Z,26.63
2022-08-19T19:18:40.530Z,27.28
2022-08-19T19:21:10.030Z,26.45
2022-08-19T19:23:41.043Z,26.61
2022-08-19T19:26:11.019Z,26.91
2022-08-19T19:28:48.100Z,26.61
2022-08-19T19:31:18.433Z,27.28
2022-08-19T19:33:47.668Z,26.84
2022-08-19T19:36:16.142Z,27.23
2022-08-19T19:38:48.560Z,27.15
2022-08-19T19:41:19.351Z,26.66
2022-08-19T19:43:59.917Z,27.07
2022-08-19T19:46:39.308Z,27.07
2022-08-19T19:49:07.949Z,26.20
2022-08-19T19:51:39.574Z,27.07
2022-08-19T19:54:13.740Z,26.89
2022-08-19T19:56:45.082Z,26.82
2022-08-19T19:59:15.655Z,27.06
2022-08-19T20:01:46.086Z,26.85
2022-08-19T20:04:15.971Z,26.89
2022-08-19T20:06:44.855Z,26.83
2022-08-19T20:09:17.571Z,26.85
2022-08-19T20:11:53.374Z,26.86
2022-08-19T20:14:26.327Z,26.78
2022-08-19T20:16:56.788Z,26.77
2022-08-19T20:19:27.268Z,26.89
2022-08-19T20:21:57.545Z,26.80
2022-08-19T20:24:28.046Z,26.74
2022-08-19T20:26:58.109Z,26.45
2022-08-19T20:29:39.078Z,26.66
2022-08-19T20:32:11.340Z,26.80
2022-08-19T20:34:39.805Z,26.75
2022-08-19T20:37:09.443Z,26.51
2022-08-19T20:39:38.536Z,26.59
2022-08-19T20:42:10.686Z,26.11
2022-08-19T20:44:40.487Z,26.44
2022-08-19T20:47:08.704Z,26.24
2022-08-19T20:49:37.157Z,26.11
2022-08-19T20:52:06.429Z,25.91
2022-08-19T20:54:34.819Z,25.89
2022-08-19T20:57:05.481Z,25.90
2022-08-19T20:59:34.207Z,25.89
2022-08-19T21:02:03.881Z,26.08
2022-08-19T21:04:33.173Z,25.94
2022-08-19T21:07:04.506Z,25.81
2022-08-19T21:09:32.889Z,25.67
2022-08-19T21:12:01.718Z,25.85
2022-08-19T21:14:31.017Z,25.30
2022-08-19T21:16:59.274Z,25.74
2022-08-19T21:19:29.216Z,26.16
2022-08-19T21:21:58.043Z,25.96
2022-08-19T21:24:31.414Z,26.14
2022-08-19T21:27:00.630Z,25.72
2022-08-19T21:29:31.944Z,25.96
2022-08-19T21:32:00.844Z,25.48
2022-08-19T21:34:30.892Z,25.65
2022-08-19T21:36:59.229Z,25.80
2022-08-19T21:39:28.045Z,26.01
2022-08-19T21:41:56.357Z,25.97
2022-08-19T21:44:24.612Z,25.90
2022-08-19T21:46:53.223Z,25.96
2022-08-19T21:49:22.319Z,25.70
2022-08-19T21:51:52.733Z,25.86
2022-08-19T21:54:21.287Z,25.96
2022-08-19T21:56:50.463Z,25.47
2022-08-19T21:59:18.839Z,25.82
2022-08-19T22:01:51.504Z,25.34
2022-08-19T22:04:25.067Z,25.80
2022-08-19T22:06:56.518Z,25.21
2022-08-19T22:09:24.888Z,25.96
2022-08-19T22:11:53.260Z,25.94
2022-08-19T22:14:24.563Z,25.96
2022-08-19T22:16:53.243Z,25.99
2022-08-19T22:19:21.487Z,25.70
2022-08-19T22:21:50.140Z,25.78
2022-08-19T22:24:19.956Z,24.86
2022-08-19T22:26:48.310Z,25.42
2022-08-19T22:29:17.363Z,25.67
2022-08-19T22:31:45.782Z,25.42
2022-08-19T22:34:23.282Z,25.42
2022-08-19T22:36:51.592Z,25.90
2022-08-19T22:39:21.354Z,25.81
2022-08-19T22:41:50.200Z,25.42
2022-08-19T22:44:18.764Z,25.83
2022-08-19T22:46:50.420Z,25.44
2022-08-19T22:49:19.046Z,26.00
2022-08-19T22:52:04.408Z,26.02
2022-08-19T22:54:34.351Z,25.82
2022-08-19T22:57:02.643Z,25.67
2022-08-19T22:59:31.052Z,25.60
2022-08-19T23:01:59.414Z,25.72
2022-08-19T23:04:27.719Z,25.59
2022-08-19T23:06:55.933Z,25.51
2022-08-19T23:09:24.534Z,24.60
2022-08-19T23:12:00.796Z,25.22
2022-08-19T23:14:29.507Z,25.18
2022-08-19T23:16:59.224Z,24.51
2022-08-19T23:19:27.658Z,25.29
2022-08-19T23:21:56.267Z,25.18
2022-08-19T23:24:24.643Z,25.02
2022-08-19T23:27:11.277Z,24.91
2022-08-19T23:29:58.934Z,24.74
2022-08-19T23:32:27.380Z,23.79
2022-08-19T23:34:58.037Z,24.38
2022-08-19T23:37:29.192Z,23.66
2022-08-19T23:39:58.284Z,24.48
2022-08-19T23:42:27.313Z,24.39
2022-08-19T23:45:00.718Z,24.60
2022-08-19T23:47:30.512Z,23.99
2022-08-19T23:49:59.252Z,24.22
2022-08-19T23:52:28.386Z,23.62
2022-08-19T23:55:01.628Z,24.43
2022-08-19T23:57:30.139Z,24.01
